Time;durP1;ratioP1;P1;durP2;ratioP2;P2;SDS_P1;SDS_P2;PMS_P1;PMS_P2;Temp;Humidity;BMP_temperature;BMP_pressure;BME280_temperature;BME280_humidity;BME280_pressure;Samples;Min_cycle;Max_cycle;Signal;HPM_P1;HPM_P2
2022/08/03 00:01:41;;;;;;;9.53;8.63;;;20.10;99.90;;;;;;5095766;27;20216;-54
2022/08/03 00:04:10;;;;;;;8.13;7.33;;;20.00;99.90;;;;;;5120954;27;20594;-51
2022/08/03 00:06:37;;;;;;;9.33;7.70;;;20.00;99.90;;;;;;5099545;27;20197;-50
2022/08/03 00:09:04;;;;;;;7.70;7.00;;;19.90;99.90;;;;;;5111855;27;20213;-51
2022/08/03 00:11:31;;;;;;;7.83;6.30;;;19.90;99.90;;;;;;5101957;27;20200;-51
2022/08/03 00:14:00;;;;;;;6.83;6.23;;;19.80;99.90;;;;;;5105232;27;20213;-50
2022/08/03 00:16:27;;;;;;;7.30;6.60;;;19.80;99.90;;;;;;5109431;27;20204;-53
2022/08/03 00:18:53;;;;;;;7.50;6.80;;;19.80;99.90;;;;;;5114457;27;20228;-54
2022/08/03 00:21:20;;;;;;;7.63;6.17;;;19.80;99.90;;;;;;5109770;27;20193;-54
2022/08/03 00:23:47;;;;;;;6.60;5.80;;;19.80;99.90;;;;;;5107958;27;20228;-55
2022/08/03 00:26:14;;;;;;;6.57;5.97;;;19.70;99.90;;;;;;5114988;27;20209;-51
2022/08/03 00:28:41;;;;;;;6.30;5.70;;;19.70;99.90;;;;;;5104677;27;20541;-53
2022/08/03 00:31:09;;;;;;;7.00;5.97;;;19.60;99.90;;;;;;5105131;28;20197;-56
2022/08/03 00:33:36;;;;;;;6.27;5.77;;;19.60;99.90;;;;;;5096338;27;20262;-49
2022/08/03 00:36:03;;;;;;;7.30;5.97;;;19.60;99.90;;;;;;5110875;27;20204;-50
2022/08/03 00:38:30;;;;;;;8.47;6.03;;;19.60;99.90;;;;;;5109253;27;20303;-55
2022/08/03 00:40:56;;;;;;;5.87;5.33;;;19.50;99.90;;;;;;5110710;27;20201;-52
2022/08/03 00:43:26;;;;;;;5.87;5.37;;;19.50;99.90;;;;;;5111972;27;20200;-53
2022/08/03 00:45:53;;;;;;;6.07;5.50;;;19.50;99.90;;;;;;5105377;27;20616;-53
2022/08/03 00:48:21;;;;;;;6.20;5.60;;;19.40;99.90;;;;;;5095397;27;20224;-55
2022/08/03 00:50:49;;;;;;;7.10;5.40;;;19.30;99.90;;;;;;5111897;27;20266;-52
2022/08/03 00:53:16;;;;;;;5.67;5.20;;;19.30;99.90;;;;;;5107993;27;20212;-54
2022/08/03 00:55:43;;;;;;;10.13;6.03;;;19.30;99.90;;;;;;5107578;27;20194;-50
2022/08/03 00:58:11;;;;;;;6.07;5.57;;;19.20;99.90;;;;;;5111800;27;20299;-55
2022/08/03 01:00:39;;;;;;;6.53;5.70;;;19.20;99.90;;;;;;5102767;27;20205;-52
2022/08/03 01:03:07;;;;;;;6.73;5.47;;;19.20;99.90;;;;;;5105133;28;20193;-53
2022/08/03 01:05:44;;;;;;;7.20;5.07;;;19.10;99.90;;;;;;5094972;27;20278;-55
2022/08/03 01:08:18;;;;;;;5.93;5.50;;;19.10;99.90;;;;;;5103276;27;20222;-54
2022/08/03 01:10:54;;;;;;;5.33;4.83;;;19.10;99.90;;;;;;5104535;27;20200;-54
2022/08/03 01:13:28;;;;;;;6.07;5.47;;;19.00;99.90;;;;;;5096654;27;20279;-54
2022/08/03 01:16:00;;;;;;;6.33;5.63;;;19.00;99.90;;;;;;5110843;27;20204;-52
2022/08/03 01:18:35;;;;;;;5.53;5.07;;;19.00;99.90;;;;;;5091421;27;20229;-57
2022/08/03 01:21:10;;;;;;;5.57;5.07;;;19.00;99.90;;;;;;5118938;27;20211;-56
2022/08/03 01:23:53;;;;;;;5.73;5.33;;;19.00;99.90;;;;;;5095502;27;20203;-54
2022/08/03 01:26:48;;;;;;;6.53;5.00;;;19.00;99.90;;;;;;5109940;27;21071;-54
2022/08/03 01:29:38;;;;;;;5.67;5.27;;;19.00;99.90;;;;;;5101177;27;20217;-50
2022/08/03 01:32:12;;;;;;;5.93;5.30;;;18.90;99.90;;;;;;5104726;27;20216;-55
2022/08/03 01:34:44;;;;;;;5.57;5.13;;;18.80;99.90;;;;;;5092569;27;20208;-50
2022/08/03 01:37:16;;;;;;;6.10;5.43;;;18.80;99.90;;;;;;5108556;27;20196;-55
2022/08/03 01:39:44;;;;;;;6.20;5.67;;;18.80;99.90;;;;;;5101555;27;20292;-49
2022/08/03 01:42:13;;;;;;;5.57;4.93;;;18.80;99.90;;;;;;5104855;27;20651;-51
2022/08/03 01:44:45;;;;;;;6.10;5.57;;;18.80;99.90;;;;;;5098370;27;23095;-53
2022/08/03 01:47:13;;;;;;;5.70;5.20;;;18.80;99.90;;;;;;5103547;28;20228;-53
2022/08/03 01:49:44;;;;;;;5.60;5.10;;;18.70;99.90;;;;;;5102017;28;20268;-52
2022/08/03 01:52:14;;;;;;;6.03;5.50;;;18.70;99.90;;;;;;5104476;27;20614;-56
2022/08/03 01:54:44;;;;;;;5.93;5.43;;;18.70;99.90;;;;;;5098070;27;20819;-55
2022/08/03 01:57:11;;;;;;;4.53;4.23;;;18.60;99.90;;;;;;5117079;28;20204;-54
2022/08/03 01:59:39;;;;;;;4.93;4.63;;;18.60;99.90;;;;;;5101557;28;20307;-53
2022/08/03 02:02:11;;;;;;;5.70;5.13;;;18.60;99.90;;;;;;5106449;28;20673;-50
2022/08/03 02:04:40;;;;;;;5.60;5.10;;;18.60;99.90;;;;;;5120684;28;20189;-51
2022/08/03 02:07:09;;;;;;;5.30;4.90;;;18.60;99.90;;;;;;5107744;27;20227;-52
2022/08/03 02:09:38;;;;;;;5.57;5.10;;;18.60;99.90;;;;;;5098694;28;20204;-51
2022/08/03 02:12:08;;;;;;;5.67;4.90;;;18.60;99.90;;;;;;5111772;28;20192;-52
2022/08/03 02:14:37;;;;;;;5.53;4.77;;;18.50;99.90;;;;;;5100374;28;20198;-56
2022/08/03 02:17:05;;;;;;;5.33;4.93;;;18.50;99.90;;;;;;5102884;28;20201;-55
2022/08/03 02:19:35;;;;;;;7.20;5.03;;;18.50;99.90;;;;;;5099960;28;20317;-54
2022/08/03 02:22:03;;;;;;;5.30;4.93;;;18.50;99.90;;;;;;5098896;28;20580;-54
2022/08/03 02:24:30;;;;;;;6.13;5.30;;;18.50;99.90;;;;;;5110983;28;20193;-53
2022/08/03 02:26:59;;;;;;;5.23;4.80;;;18.50;99.90;;;;;;5102964;28;20211;-49
2022/08/03 02:29:31;;;;;;;5.27;4.87;;;18.50;99.90;;;;;;5107199;27;20197;-53
2022/08/03 02:32:03;;;;;;;5.30;4.87;;;18.50;99.90;;;;;;5109647;28;20201;-49
2022/08/03 02:34:34;;;;;;;5.57;4.97;;;18.50;99.90;;;;;;5119168;27;20193;-53
2022/08/03 02:37:04;;;;;;;10.13;5.03;;;18.50;99.90;;;;;;5109049;28;20300;-52
2022/08/03 02:39:32;;;;;;;5.57;5.17;;;18.50;99.90;;;;;;5104342;28;20275;-52
2022/08/03 02:42:02;;;;;;;5.83;5.33;;;18.50;99.90;;;;;;5103816;28;20229;-50
2022/08/03 02:44:33;;;;;;;5.23;4.77;;;18.40;99.90;;;;;;5101677;27;20193;-51
2022/08/03 02:47:04;;;;;;;5.60;5.20;;;18.40;99.90;;;;;;5108543;27;20204;-53
2022/08/03 02:49:35;;;;;;;5.67;4.97;;;18.40;99.90;;;;;;5103542;27;20857;-55
2022/08/03 02:52:04;;;;;;;5.50;5.00;;;18.40;99.90;;;;;;5101523;27;20216;-51
2022/08/03 02:54:32;;;;;;;6.43;5.70;;;18.30;99.90;;;;;;5109461;27;20420;-54
2022/08/03 02:57:01;;;;;;;5.20;4.80;;;18.30;99.90;;;;;;5110060;27;20197;-54
2022/08/03 02:59:31;;;;;;;5.30;4.80;;;18.30;99.90;;;;;;5115011;27;20265;-49
2022/08/03 03:02:00;;;;;;;5.70;5.10;;;18.30;99.90;;;;;;5103862;27;20200;-54
2022/08/03 03:04:29;;;;;;;5.27;4.87;;;18.20;99.90;;;;;;5122267;27;20204;-54
2022/08/03 03:06:58;;;;;;;5.57;5.17;;;18.20;99.90;;;;;;5126997;27;20692;-49
2022/08/03 03:09:25;;;;;;;5.27;4.70;;;18.20;99.90;;;;;;5103587;27;20344;-54
2022/08/03 03:11:54;;;;;;;7.00;5.50;;;18.20;99.90;;;;;;5109365;27;20686;-51
2022/08/03 03:14:21;;;;;;;5.77;5.27;;;18.20;99.90;;;;;;5105757;27;20193;-54
2022/08/03 03:16:49;;;;;;;5.97;5.37;;;18.20;99.90;;;;;;5107693;27;20202;-52
2022/08/03 03:19:18;;;;;;;5.90;5.40;;;18.20;99.90;;;;;;5108620;27;20580;-54
2022/08/03 03:21:46;;;;;;;6.60;5.23;;;18.20;99.90;;;;;;5114786;27;20378;-56
2022/08/03 03:24:16;;;;;;;6.23;4.97;;;18.20;99.90;;;;;;5104293;27;20205;-55
2022/08/03 03:26:43;;;;;;;5.67;5.13;;;18.10;99.90;;;;;;5118135;27;20192;-53
2022/08/03 03:29:10;;;;;;;5.10;4.70;;;18.20;99.90;;;;;;5107382;27;20581;-57
2022/08/03 03:31:37;;;;;;;5.70;5.30;;;18.10;99.90;;;;;;5109872;27;20976;-52
2022/08/03 03:34:04;;;;;;;5.60;5.20;;;18.10;99.90;;;;;;5102906;27;20201;-50
2022/08/03 03:36:32;;;;;;;5.30;5.00;;;18.00;99.90;;;;;;5102966;27;20909;-51
2022/08/03 03:38:58;;;;;;;5.83;5.33;;;18.00;99.90;;;;;;5101885;27;20266;-52
2022/08/03 03:41:27;;;;;;;5.33;4.80;;;18.00;99.90;;;;;;5110963;27;20673;-53
2022/08/03 03:43:54;;;;;;;5.53;5.13;;;18.00;99.90;;;;;;5102002;27;20208;-55
2022/08/03 03:46:20;;;;;;;5.40;4.90;;;18.00;99.90;;;;;;5113320;27;20193;-54
2022/08/03 03:48:49;;;;;;;5.80;5.40;;;18.00;99.90;;;;;;5105004;27;20225;-56
2022/08/03 03:51:16;;;;;;;5.40;5.00;;;18.00;99.90;;;;;;5104329;27;20197;-54
2022/08/03 03:53:54;;;;;;;5.67;5.17;;;18.00;99.90;;;;;;5100526;27;20221;-51
2022/08/03 03:56:21;;;;;;;5.50;5.10;;;18.00;99.90;;;;;;5107311;27;20193;-54
2022/08/03 03:58:50;;;;;;;5.33;4.83;;;18.00;99.90;;;;;;5116488;27;20220;-52
2022/08/03 04:01:17;;;;;;;7.77;5.53;;;18.00;99.90;;;;;;5096439;27;20209;-54
2022/08/03 04:03:44;;;;;;;5.00;4.57;;;18.10;99.90;;;;;;5113349;27;20189;-54
2022/08/03 04:11:48;;;;;;;4.87;4.57;;;18.00;99.90;;;;;;5100695;27;20229;-57
2022/08/03 04:14:20;;;;;;;5.37;4.97;;;18.00;99.90;;;;;;5105733;27;20193;-51
2022/08/03 04:16:51;;;;;;;5.60;5.07;;;17.90;99.90;;;;;;5100325;27;20205;-52
2022/08/03 04:19:24;;;;;;;5.97;5.47;;;18.00;99.90;;;;;;5108161;27;20228;-53
2022/08/03 04:21:53;;;;;;;5.70;5.30;;;17.90;99.90;;;;;;5107025;27;20210;-54
2022/08/03 04:24:21;;;;;;;5.57;5.17;;;17.90;99.90;;;;;;5100931;27;20207;-56
2022/08/03 04:26:50;;;;;;;5.10;4.70;;;17.90;99.90;;;;;;5105529;27;20717;-55
2022/08/03 04:29:20;;;;;;;5.40;4.93;;;17.90;99.90;;;;;;5111235;27;20697;-52
2022/08/03 04:31:48;;;;;;;5.27;4.87;;;17.90;99.90;;;;;;5106064;27;20569;-52
2022/08/03 04:34:16;;;;;;;5.90;5.40;;;17.90;99.90;;;;;;5103130;27;20201;-55
2022/08/03 04:36:48;;;;;;;5.67;5.17;;;17.90;99.90;;;;;;5098672;27;20537;-50
2022/08/03 04:39:19;;;;;;;5.23;4.83;;;18.00;99.90;;;;;;5093182;27;20702;-56
2022/08/03 04:41:48;;;;;;;5.70;5.30;;;18.00;99.90;;;;;;5113956;27;20201;-52
2022/08/03 04:44:16;;;;;;;5.43;5.13;;;18.00;99.90;;;;;;5121890;27;20208;-55
2022/08/03 04:46:45;;;;;;;5.67;5.07;;;18.00;99.90;;;;;;5105893;27;20181;-50
2022/08/03 04:49:12;;;;;;;5.40;5.00;;;18.00;99.90;;;;;;5100474;27;20213;-53
2022/08/03 04:51:39;;;;;;;6.33;5.73;;;18.10;99.90;;;;;;5099599;27;20197;-54
2022/08/03 04:54:06;;;;;;;5.63;5.23;;;18.10;99.90;;;;;;5101380;27;20315;-51
2022/08/03 04:56:34;;;;;;;5.87;5.37;;;18.10;99.90;;;;;;5110696;27;20919;-53
2022/08/03 04:59:00;;;;;;;5.50;5.20;;;18.10;99.90;;;;;;5103982;27;20227;-55
2022/08/03 05:01:27;;;;;;;6.33;5.10;;;18.10;99.90;;;;;;5107957;27;20193;-51
2022/08/03 05:03:55;;;;;;;5.93;5.30;;;18.10;99.90;;;;;;5112668;27;20189;-55
2022/08/03 05:06:22;;;;;;;6.30;5.77;;;18.20;99.90;;;;;;5118135;27;20201;-50
2022/08/03 05:08:49;;;;;;;6.07;5.50;;;18.20;99.90;;;;;;5107289;27;20308;-55
2022/08/03 05:11:16;;;;;;;5.73;5.20;;;18.30;99.90;;;;;;5099795;27;20688;-54
2022/08/03 05:13:44;;;;;;;5.70;5.30;;;18.30;99.90;;;;;;5113158;27;20857;-56
2022/08/03 05:16:12;;;;;;;5.77;5.27;;;18.30;99.90;;;;;;5099030;27;20208;-53
2022/08/03 05:18:40;;;;;;;5.63;5.20;;;18.30;99.90;;;;;;5106341;27;20220;-56
2022/08/03 05:21:09;;;;;;;6.00;5.60;;;18.40;99.90;;;;;;5099667;27;20228;-54
2022/08/03 05:23:36;;;;;;;5.57;5.07;;;18.40;99.90;;;;;;5111511;27;20565;-53
2022/08/03 05:26:03;;;;;;;6.33;5.83;;;18.50;99.90;;;;;;5104417;27;20262;-52
2022/08/03 05:28:30;;;;;;;7.60;6.77;;;18.50;99.90;;;;;;5100267;27;20789;-51
2022/08/03 05:30:57;;;;;;;8.43;6.27;;;18.60;99.90;;;;;;5108494;27;20193;-50
2022/08/03 05:33:24;;;;;;;6.20;5.57;;;18.70;99.90;;;;;;5102112;27;20193;-52
2022/08/03 05:35:51;;;;;;;8.83;6.63;;;18.80;99.90;;;;;;5110185;27;20196;-54
2022/08/03 05:38:19;;;;;;;7.90;6.17;;;18.90;99.90;;;;;;5100082;28;20705;-51
2022/08/03 05:40:46;;;;;;;7.33;5.93;;;19.00;99.90;;;;;;5111169;27;20253;-55
2022/08/03 05:43:13;;;;;;;6.60;6.10;;;19.00;99.90;;;;;;5103920;27;20217;-53
2022/08/03 05:45:40;;;;;;;7.17;6.50;;;19.20;99.90;;;;;;5106774;27;20193;-55
2022/08/03 05:48:07;;;;;;;6.57;6.00;;;19.30;99.90;;;;;;5106929;27;20214;-52
2022/08/03 05:50:35;;;;;;;6.43;5.67;;;19.40;99.90;;;;;;5112452;27;20204;-52
2022/08/03 05:53:02;;;;;;;7.17;5.90;;;19.40;99.90;;;;;;5105917;27;20188;-53
2022/08/03 05:55:30;;;;;;;61.67;13.70;;;19.50;99.90;;;;;;5101234;27;20205;-51
2022/08/03 05:57:57;;;;;;;6.47;5.83;;;19.60;99.90;;;;;;5104693;28;20220;-57
2022/08/03 06:00:23;;;;;;;6.40;5.80;;;19.70;99.90;;;;;;5084467;28;20577;-57
2022/08/03 06:02:50;;;;;;;10.20;6.20;;;19.80;99.90;;;;;;5104289;28;20651;-59
2022/08/03 06:05:17;;;;;;;6.10;5.50;;;20.00;99.90;;;;;;5103504;28;20197;-52
2022/08/03 06:07:45;;;;;;;6.33;5.73;;;20.10;99.90;;;;;;5110221;28;20235;-49
2022/08/03 06:10:12;;;;;;;6.47;5.57;;;20.30;99.90;;;;;;5098768;28;20205;-52
2022/08/03 06:12:40;;;;;;;8.20;5.40;;;20.40;99.90;;;;;;5101815;28;20205;-53
2022/08/03 06:15:09;;;;;;;9.40;6.00;;;20.50;99.90;;;;;;5089163;28;20306;-52
2022/08/03 06:17:44;;;;;;;5.80;5.30;;;20.60;99.90;;;;;;5107060;28;20208;-54
2022/08/03 06:20:12;;;;;;;6.90;5.00;;;20.70;99.90;;;;;;5111399;27;20251;-50
2022/08/03 06:22:38;;;;;;;7.03;6.07;;;20.90;99.90;;;;;;5106387;27;20193;-54
2022/08/03 06:25:24;;;;;;;5.53;5.03;;;21.00;99.90;;;;;;5108917;27;20666;-48
2022/08/03 06:27:53;;;;;;;6.37;4.80;;;21.20;99.90;;;;;;5106642;27;20217;-47
2022/08/03 06:30:19;;;;;;;8.80;4.60;;;21.30;99.90;;;;;;5104704;27;20192;-54
2022/08/03 06:32:46;;;;;;;7.00;4.97;;;21.50;99.90;;;;;;5114100;27;20189;-54
2022/08/03 06:35:15;;;;;;;11.20;4.93;;;21.60;99.90;;;;;;5107477;27;20196;-50
2022/08/03 06:37:43;;;;;;;6.33;4.00;;;21.70;99.90;;;;;;5117579;27;20212;-52
2022/08/03 06:40:12;;;;;;;5.73;4.57;;;21.80;99.90;;;;;;5102391;27;20217;-50
2022/08/03 06:42:39;;;;;;;4.73;4.40;;;21.90;99.90;;;;;;5104138;27;20204;-52
2022/08/03 06:45:08;;;;;;;5.77;4.03;;;22.00;99.90;;;;;;5112728;27;20220;-50
2022/08/03 06:47:35;;;;;;;3.67;3.47;;;22.10;99.90;;;;;;5115383;27;20697;-51
2022/08/03 06:50:03;;;;;;;4.50;4.20;;;22.20;99.90;;;;;;5101635;27;20197;-56
2022/08/03 06:52:30;;;;;;;6.03;4.50;;;22.30;99.90;;;;;;5106776;27;20198;-52
2022/08/03 06:54:57;;;;;;;5.57;4.10;;;22.30;99.90;;;;;;5114138;27;20198;-52
2022/08/03 06:57:24;;;;;;;4.97;4.47;;;22.50;99.90;;;;;;5092178;27;20228;-52
2022/08/03 06:59:51;;;;;;;7.07;4.13;;;22.60;99.90;;;;;;5107180;27;20218;-50
2022/08/03 07:02:19;;;;;;;4.43;3.97;;;22.70;99.90;;;;;;5096653;27;20204;-55
2022/08/03 07:04:46;;;;;;;4.78;4.28;;;22.80;99.90;;;;;;5105618;27;20242;-53
2022/08/03 07:07:13;;;;;;;6.70;4.70;;;22.90;99.90;;;;;;5102067;27;20204;-54
2022/08/03 07:09:40;;;;;;;8.00;4.30;;;23.00;99.90;;;;;;5111006;27;20262;-50
2022/08/03 07:12:07;;;;;;;6.88;4.13;;;23.10;99.90;;;;;;5110121;27;20188;-55
2022/08/03 07:14:34;;;;;;;4.45;4.13;;;23.30;99.90;;;;;;5110721;27;20208;-51
2022/08/03 07:17:00;;;;;;;5.65;3.75;;;23.50;99.90;;;;;;5099797;27;20208;-52
2022/08/03 07:19:28;;;;;;;6.75;3.60;;;23.60;99.90;;;;;;5105594;27;20300;-51
2022/08/03 07:21:55;;;;;;;4.38;2.90;;;23.80;99.90;;;;;;5107112;27;20270;-53
2022/08/03 07:24:22;;;;;;;4.60;3.45;;;23.90;99.90;;;;;;5106053;27;20254;-53
2022/08/03 07:26:48;;;;;;;3.90;2.92;;;24.00;99.90;;;;;;5115037;27;20212;-52
2022/08/03 07:29:15;;;;;;;6.43;2.88;;;24.10;99.90;;;;;;5104214;27;20308;-54
2022/08/03 07:31:43;;;;;;;4.85;2.80;;;24.30;99.90;;;;;;5100411;27;20273;-54
2022/08/03 07:34:09;;;;;;;2.95;2.63;;;24.30;99.90;;;;;;5107841;27;20205;-54
2022/08/03 07:36:37;;;;;;;3.80;2.80;;;24.40;99.90;;;;;;5100220;27;20205;-52
2022/08/03 07:39:05;;;;;;;4.70;2.53;;;24.60;99.90;;;;;;5118166;27;20568;-53
2022/08/03 07:41:32;;;;;;;3.40;2.80;;;24.80;99.90;;;;;;5112190;27;20292;-48
2022/08/03 07:43:59;;;;;;;3.72;3.20;;;24.80;99.90;;;;;;5107057;27;20198;-50
2022/08/03 07:46:26;;;;;;;3.22;2.92;;;24.80;99.90;;;;;;5103013;27;20705;-51
2022/08/03 07:48:52;;;;;;;5.63;2.72;;;24.80;99.90;;;;;;5099967;27;20227;-54
2022/08/03 07:51:19;;;;;;;3.55;2.40;;;24.80;99.90;;;;;;5111499;27;20189;-56
2022/08/03 07:53:47;;;;;;;2.95;2.33;;;24.80;99.90;;;;;;5107818;27;20220;-52
2022/08/03 07:56:15;;;;;;;3.05;2.15;;;24.90;99.90;;;;;;5109941;27;20199;-53
2022/08/03 07:58:42;;;;;;;3.10;1.90;;;25.00;99.90;;;;;;5107151;27;20213;-52
2022/08/03 08:01:09;;;;;;;4.88;2.05;;;25.10;99.90;;;;;;5113461;27;20220;-54
2022/08/03 08:03:36;;;;;;;3.40;2.05;;;25.20;99.90;;;;;;5096113;27;20224;-50
2022/08/03 08:06:22;;;;;;;2.78;1.73;;;25.30;99.30;;;;;;5109182;27;20208;-53
2022/08/03 08:08:50;;;;;;;3.72;2.15;;;25.40;99.30;;;;;;5105772;27;20752;-50
2022/08/03 08:11:17;;;;;;;2.20;2.10;;;25.50;99.60;;;;;;5108606;27;20207;-49
2022/08/03 08:13:43;;;;;;;3.28;2.45;;;25.60;99.10;;;;;;5105476;27;20213;-53
2022/08/03 08:16:10;;;;;;;2.13;1.67;;;25.60;98.70;;;;;;5107077;27;20534;-55
2022/08/03 08:18:37;;;;;;;3.28;1.80;;;25.70;98.40;;;;;;5094399;27;20216;-53
2022/08/03 08:21:04;;;;;;;2.38;1.75;;;25.80;98.10;;;;;;5114314;27;20718;-52
2022/08/03 08:23:31;;;;;;;3.80;1.90;;;25.90;98.10;;;;;;5095990;27;20197;-55
2022/08/03 08:25:59;;;;;;;1.92;1.70;;;25.90;97.50;;;;;;5117173;27;20200;-53
2022/08/03 08:28:25;;;;;;;3.05;2.03;;;26.10;97.50;;;;;;5115068;27;20212;-53
2022/08/03 08:30:53;;;;;;;2.55;1.88;;;26.10;97.30;;;;;;5106720;27;20209;-55
2022/08/03 08:33:19;;;;;;;3.35;1.70;;;26.20;97.00;;;;;;5100612;27;20693;-52
2022/08/03 08:35:46;;;;;;;5.25;1.80;;;26.30;96.70;;;;;;5112378;27;20201;-55
2022/08/03 08:38:13;;;;;;;4.70;2.13;;;26.30;96.30;;;;;;5111819;27;20296;-55
2022/08/03 08:40:40;;;;;;;3.55;2.35;;;26.40;96.40;;;;;;5106839;27;20212;-53
2022/08/03 08:43:08;;;;;;;2.28;1.80;;;26.50;96.20;;;;;;5108609;27;20591;-54
2022/08/03 08:45:35;;;;;;;3.35;1.98;;;26.60;96.10;;;;;;5099222;27;20201;-54
2022/08/03 08:48:03;;;;;;;3.50;2.10;;;26.60;96.10;;;;;;5109528;27;20227;-50
2022/08/03 08:50:31;;;;;;;2.03;1.80;;;26.70;96.40;;;;;;5104279;27;20200;-53
2022/08/03 08:53:01;;;;;;;3.78;1.98;;;26.80;96.60;;;;;;5114901;27;20197;-55
2022/08/03 08:55:29;;;;;;;4.15;2.20;;;26.80;96.10;;;;;;5097417;27;20276;-55
2022/08/03 08:57:59;;;;;;;3.30;1.90;;;26.80;96.00;;;;;;5113998;27;20289;-55
2022/08/03 09:00:27;;;;;;;2.08;1.98;;;26.80;95.80;;;;;;5093433;27;20953;-55
2022/08/03 09:02:53;;;;;;;2.20;2.00;;;26.80;95.90;;;;;;5111957;27;20197;-55
2022/08/03 09:05:20;;;;;;;2.13;2.00;;;26.80;95.70;;;;;;5095329;27;20253;-52
2022/08/03 09:07:48;;;;;;;3.63;1.95;;;26.90;95.80;;;;;;5111453;27;20232;-52
2022/08/03 09:10:18;;;;;;;3.63;1.95;;;26.90;95.70;;;;;;5108526;27;20193;-55
2022/08/03 09:12:47;;;;;;;2.20;1.80;;;26.90;95.30;;;;;;5108799;27;20205;-51
2022/08/03 09:15:23;;;;;;;2.13;1.90;;;26.90;95.30;;;;;;5103994;27;20276;-53
2022/08/03 09:17:53;;;;;;;3.72;2.42;;;26.90;95.30;;;;;;5105635;27;20221;-53
2022/08/03 09:20:22;;;;;;;3.05;2.00;;;26.90;95.40;;;;;;5101441;27;20208;-52
2022/08/03 09:22:54;;;;;;;3.17;1.60;;;26.90;95.30;;;;;;5111225;27;20192;-54
2022/08/03 09:25:31;;;;;;;3.50;1.80;;;26.90;95.10;;;;;;5096653;27;20194;-54
2022/08/03 09:28:07;;;;;;;2.90;1.83;;;27.00;95.50;;;;;;5102448;27;20649;-54
2022/08/03 09:30:34;;;;;;;2.55;1.70;;;27.10;95.20;;;;;;5110768;27;20187;-55
2022/08/03 09:33:03;;;;;;;2.75;1.75;;;27.10;95.20;;;;;;5101111;27;20685;-55
2022/08/03 09:35:30;;;;;;;1.60;1.50;;;27.10;95.20;;;;;;5105827;27;20200;-54
2022/08/03 09:38:10;;;;;;;4.90;1.60;;;27.30;94.90;;;;;;5115261;27;20204;-53
2022/08/03 09:40:37;;;;;;;2.28;2.03;;;27.30;95.30;;;;;;5113023;27;21078;-54
2022/08/03 09:43:06;;;;;;;2.60;1.70;;;27.40;95.00;;;;;;5106036;27;20760;-50
2022/08/03 09:45:34;;;;;;;3.83;1.75;;;27.50;94.80;;;;;;5104164;27;20216;-53
2022/08/03 09:48:24;;;;;;;2.70;1.52;;;27.60;94.60;;;;;;5108953;27;20224;-52
2022/08/03 09:50:52;;;;;;;3.92;1.77;;;27.70;94.30;;;;;;5107122;27;20219;-52
2022/08/03 09:53:20;;;;;;;3.10;1.73;;;27.80;94.70;;;;;;5104992;27;20235;-55
2022/08/03 09:55:51;;;;;;;7.80;1.95;;;27.90;94.40;;;;;;5105434;27;20205;-54
2022/08/03 09:58:20;;;;;;;2.88;1.60;;;27.90;93.80;;;;;;5102668;27;20295;-54
2022/08/03 10:00:56;;;;;;;5.57;1.58;;;28.00;94.00;;;;;;5117982;27;20208;-51
2022/08/03 10:03:26;;;;;;;1.95;1.75;;;27.90;94.10;;;;;;5100881;28;20192;-55
2022/08/03 10:05:53;;;;;;;3.97;1.80;;;28.00;97.30;;;;;;5112379;28;20204;-54
2022/08/03 10:08:21;;;;;;;3.95;1.63;;;27.90;96.20;;;;;;5099324;27;20231;-55
2022/08/03 10:10:49;;;;;;;2.22;1.60;;;27.80;95.00;;;;;;5107491;28;20232;-55
2022/08/03 10:13:18;;;;;;;2.85;1.83;;;28.00;94.00;;;;;;5097831;28;20215;-52
2022/08/03 10:15:45;;;;;;;2.25;1.75;;;28.20;99.80;;;;;;5112401;28;20204;-55
2022/08/03 10:18:12;;;;;;;4.93;1.60;;;28.30;93.50;;;;;;5100869;28;20221;-55
2022/08/03 10:20:45;;;;;;;4.50;1.60;;;28.20;92.80;;;;;;5110646;28;20245;-55
2022/08/03 10:23:13;;;;;;;3.92;1.50;;;28.20;92.60;;;;;;5096897;28;20204;-53
2022/08/03 10:25:43;;;;;;;3.00;1.73;;;28.20;92.70;;;;;;5103390;28;20190;-55
2022/08/03 10:28:14;;;;;;;2.90;1.48;;;28.30;92.80;;;;;;5110937;27;20216;-52
2022/08/03 10:30:47;;;;;;;2.03;1.40;;;28.30;92.40;;;;;;5104499;28;20197;-53
2022/08/03 10:33:18;;;;;;;2.70;1.90;;;28.30;92.10;;;;;;5107519;28;20201;-54
2022/08/03 10:35:50;;;;;;;2.83;1.70;;;28.30;92.00;;;;;;5103836;28;20274;-54
2022/08/03 10:38:21;;;;;;;6.13;1.88;;;28.40;91.60;;;;;;5091382;28;20545;-55
2022/08/03 10:40:53;;;;;;;4.43;1.55;;;28.40;92.20;;;;;;5115978;28;20224;-56
2022/08/03 10:43:22;;;;;;;3.50;1.60;;;28.40;92.10;;;;;;5112341;28;20208;-55
2022/08/03 10:45:50;;;;;;;3.65;1.60;;;28.40;92.00;;;;;;5102318;28;20209;-56
2022/08/03 10:48:19;;;;;;;5.13;1.88;;;28.50;92.00;;;;;;5101028;28;20560;-54
2022/08/03 10:50:49;;;;;;;4.05;1.60;;;28.60;92.10;;;;;;5111144;28;20209;-55
2022/08/03 10:53:16;;;;;;;4.85;2.00;;;28.70;92.20;;;;;;5092901;28;20205;-51
2022/08/03 10:58:48;;;;;;;3.25;1.60;;;28.70;91.10;;;;;;5110242;28;20235;-55
2022/08/03 11:01:17;;;;;;;2.25;1.60;;;28.70;90.30;;;;;;5092717;28;20290;-53
2022/08/03 11:04:15;;;;;;;3.05;1.35;;;28.60;90.50;;;;;;5109162;28;20251;-54
2022/08/03 11:06:44;;;;;;;3.78;1.70;;;28.70;90.10;;;;;;5120009;27;20614;-51
2022/08/03 11:09:17;;;;;;;4.10;1.30;;;28.70;90.20;;;;;;5093398;27;20225;-53
2022/08/03 11:11:45;;;;;;;4.35;1.55;;;28.70;90.10;;;;;;5118982;27;20216;-55
2022/08/03 11:14:14;;;;;;;4.47;1.60;;;28.70;90.30;;;;;;5113024;27;20920;-55
2022/08/03 11:16:42;;;;;;;4.07;1.70;;;28.70;90.30;;;;;;5112067;27;20192;-54
2022/08/03 11:19:10;;;;;;;3.08;1.80;;;28.70;90.50;;;;;;5107292;27;20212;-55
2022/08/03 11:21:58;;;;;;;2.97;1.30;;;28.80;90.60;;;;;;5106607;27;20705;-54
2022/08/03 11:24:59;;;;;;;2.70;1.30;;;29.10;90.50;;;;;;5096753;27;20216;-53
2022/08/03 11:27:28;;;;;;;4.28;1.60;;;29.10;89.70;;;;;;5108699;27;20315;-55
2022/08/03 11:29:58;;;;;;;2.17;1.55;;;29.10;89.30;;;;;;5110488;27;20560;-56
2022/08/03 11:32:55;;;;;;;2.78;1.25;;;29.00;88.90;;;;;;5109763;27;20543;-54
2022/08/03 11:35:23;;;;;;;3.22;1.60;;;29.00;89.10;;;;;;5106185;27;20225;-52
2022/08/03 11:38:07;;;;;;;4.40;1.75;;;29.20;89.30;;;;;;5111784;27;20213;-53
2022/08/03 11:40:40;;;;;;;5.18;1.70;;;29.10;88.00;;;;;;5102635;27;20196;-54
2022/08/03 11:43:08;;;;;;;3.85;1.98;;;29.10;88.70;;;;;;5112285;27;20738;-54
2022/08/03 11:45:36;;;;;;;2.75;1.27;;;29.00;88.50;;;;;;5117957;27;20201;-53
2022/08/03 11:48:14;;;;;;;5.63;1.55;;;29.00;88.70;;;;;;5104418;27;20940;-55
2022/08/03 11:50:44;;;;;;;1.83;1.58;;;29.20;87.60;;;;;;5109208;27;20285;-53
2022/08/03 11:53:16;;;;;;;3.20;1.65;;;29.40;87.60;;;;;;5108772;27;20187;-51
2022/08/03 11:55:47;;;;;;;2.15;1.35;;;29.50;87.70;;;;;;5106382;27;20216;-54
2022/08/03 11:58:18;;;;;;;6.05;1.60;;;29.70;86.30;;;;;;5103626;27;20211;-54
2022/08/03 12:00:44;;;;;;;3.03;1.70;;;29.80;84.90;;;;;;5109935;27;20212;-53
2022/08/03 12:03:13;;;;;;;4.50;2.10;;;29.80;84.90;;;;;;5104165;27;20229;-49
2022/08/03 12:05:46;;;;;;;1.77;1.48;;;29.90;83.90;;;;;;5114295;27;20225;-54
2022/08/03 12:08:16;;;;;;;5.05;1.58;;;29.90;84.00;;;;;;5098242;27;20300;-54
2022/08/03 12:10:50;;;;;;;6.82;1.70;;;30.10;83.30;;;;;;5109398;27;20664;-53
2022/08/03 12:13:19;;;;;;;2.63;1.60;;;30.10;82.60;;;;;;5096260;27;20201;-55
2022/08/03 12:15:52;;;;;;;4.15;1.52;;;30.20;83.10;;;;;;5117572;27;20246;-53
2022/08/03 12:18:20;;;;;;;2.45;1.73;;;30.30;83.10;;;;;;5107446;27;20244;-55
2022/08/03 12:20:48;;;;;;;3.15;1.50;;;30.30;82.50;;;;;;5118751;27;20224;-53
2022/08/03 12:23:16;;;;;;;3.63;1.63;;;30.20;81.80;;;;;;5103096;27;20281;-55
2022/08/03 12:25:44;;;;;;;5.07;1.60;;;30.20;82.10;;;;;;5112753;27;20320;-54
2022/08/03 12:28:17;;;;;;;6.88;1.40;;;30.20;81.60;;;;;;5107458;27;20212;-51
2022/08/03 12:30:45;;;;;;;5.03;1.50;;;30.30;80.70;;;;;;5117132;27;20685;-53
2022/08/03 12:33:23;;;;;;;3.13;1.58;;;30.20;81.40;;;;;;5104754;27;20216;-55
2022/08/03 12:36:02;;;;;;;2.42;1.70;;;30.20;81.80;;;;;;5098108;27;20201;-52
2022/08/03 12:38:32;;;;;;;2.95;1.52;;;30.50;82.70;;;;;;5111050;27;20229;-48
2022/08/03 12:41:01;;;;;;;5.32;1.60;;;30.70;80.40;;;;;;5112968;27;20197;-51
2022/08/03 12:43:27;;;;;;;3.22;1.70;;;30.70;80.50;;;;;;5102744;27;20228;-53
2022/08/03 12:46:15;;;;;;;2.13;1.40;;;30.80;79.70;;;;;;5111779;27;20719;-54
2022/08/03 12:49:02;;;;;;;5.20;1.55;;;30.70;78.50;;;;;;5106301;27;20247;-55
2022/08/03 12:51:31;;;;;;;4.00;1.80;;;30.70;76.60;;;;;;5107172;27;20224;-53
2022/08/03 12:54:01;;;;;;;4.95;1.63;;;30.70;79.80;;;;;;5103417;27;20200;-54
2022/08/03 12:56:28;;;;;;;1.98;1.33;;;30.80;78.10;;;;;;5112088;27;20193;-53
2022/08/03 12:58:54;;;;;;;4.75;1.42;;;31.00;77.50;;;;;;5096934;27;20220;-52
2022/08/03 13:01:23;;;;;;;3.20;1.35;;;30.80;77.00;;;;;;5115654;27;20196;-50
2022/08/03 13:03:52;;;;;;;3.40;1.45;;;31.00;77.10;;;;;;5109123;27;20261;-53
2022/08/03 13:06:20;;;;;;;3.40;1.38;;;31.60;75.50;;;;;;5103512;27;20283;-54